WetterOnline ( http://www.wetteronline.de )

Wetter aktuell Neustadt i.H.

Aktuelles Wetter: Pelzerhaken/Neustadt i.H. (2m)

6-stündlich | Neueste Meldungen
Ortszeit Temperatur Wetter
Mo, 25.06. 2:00 12.3° C fast wolkenlos
So, 24.06. 20:00 16.8° C bedeckt
So, 24.06. 14:00 15.9° C bewölkt
So, 24.06. 8:00 12.3° C Sprühregen
So, 24.06. 2:00 12.0° C Sprühregen
Sa, 23.06. 20:00 14.0° C bedeckt
Sa, 23.06. 14:00 16.3° C bewölkt
Sa, 23.06. 8:00 13.9° C bedeckt
Ortszeit Temperatur Wetter
Mo, 25.06. 5:30 11.9° C bedeckt
Mo, 25.06. 5:20 11.9° C bedeckt
Mo, 25.06. 5:10 11.8° C bedeckt
Mo, 25.06. 5:00 11.7° C bedeckt
Mo, 25.06. 4:50 11.7° C bedeckt
Mo, 25.06. 4:40 11.7° C wolkig
Mo, 25.06. 4:30 11.5° C fast wolkenlos
Mo, 25.06. 4:00 11.5° C wolkenlos
Mo, 25.06. 3:30 11.9° C wolkenlos
Mo, 25.06. 3:00 12.3° C wolkig
Mo, 25.06. 2:30 12.4° C wolkig
Ortszeit Relative Feuchte Sichtweite
Mo, 25.06. 2:00 92% 20 km
So, 24.06. 20:00 71% 40 km
So, 24.06. 14:00 72% 55 km
So, 24.06. 8:00 90% 21 km
So, 24.06. 2:00 92% 10 km
Sa, 23.06. 20:00 84% 45 km
Sa, 23.06. 14:00 57% 40 km
Sa, 23.06. 8:00 70% 40 km
Ortszeit Relative Feuchte Sichtweite
Mo, 25.06. 5:30 94% 11 km
Mo, 25.06. 5:20 94% -
Mo, 25.06. 5:10 94% -
Mo, 25.06. 5:00 95% 10 km
Mo, 25.06. 4:50 95% -
Mo, 25.06. 4:40 95% -
Mo, 25.06. 4:30 95% 11 km
Mo, 25.06. 4:00 94% 13 km
Mo, 25.06. 3:30 94% 14 km
Mo, 25.06. 3:00 92% 19 km
Mo, 25.06. 2:30 91% 20 km
Ortszeit Niederschlagsmenge Niederschlagsart
Mo, 25.06. 2:00 0.0 l/m2 in 6 Std. -
So, 24.06. 20:00 0.1 l/m2 in 12 Std. Regen
So, 24.06. 14:00 0.1 l/m2 in 6 Std. Regen
So, 24.06. 8:00 0.7 l/m2 in 12 Std. Regen
So, 24.06. 2:00 0.5 l/m2 in 6 Std. Regen
Sa, 23.06. 20:00 0.3 l/m2 in 12 Std. Regen
Sa, 23.06. 14:00 0.0 l/m2 in 6 Std. -
Sa, 23.06. 8:00 0.1 l/m2 in 12 Std. Regen
Ortszeit Niederschlagsmenge Niederschlagsart
Mo, 25.06. 5:30 0.0 l/m2 in 1 Std. -
Mo, 25.06. 5:20 keine Meldung -
Mo, 25.06. 5:10 keine Meldung -
Mo, 25.06. 5:00 0.0 l/m2 in 1 Std. -
Mo, 25.06. 4:50 keine Meldung -
Mo, 25.06. 4:40 keine Meldung -
Mo, 25.06. 4:30 0.0 l/m2 in 1 Std. -
Mo, 25.06. 4:00 0.0 l/m2 in 1 Std. -
Mo, 25.06. 3:30 0.0 l/m2 in 1 Std. -
Mo, 25.06. 3:00 0.0 l/m2 in 1 Std. -
Mo, 25.06. 2:30 0.0 l/m2 in 1 Std. -
Ortszeit Stärke Spitze Richtung
km/h Bft. km/h Grad Sektor
Mo, 25.06. 2:00 11 2 22 300° NW
So, 24.06. 20:00 4 1 29 330° NW
So, 24.06. 14:00 14 3 32 290° W
So, 24.06. 8:00 9 2 24 280° W
So, 24.06. 2:00 11 2 32 280° W
Sa, 23.06. 20:00 18 3 43 300° NW
Sa, 23.06. 14:00 14 3 43 290° W
Sa, 23.06. 8:00 18 3 40 320° NW
Ortszeit Stärke Spitze Richtung
km/h Bft. km/h Grad Sektor
Mo, 25.06. 5:30 7 2 18 280° W
Mo, 25.06. 5:20 7 2 - 280° W
Mo, 25.06. 5:10 7 2 - 290° W
Mo, 25.06. 5:00 7 2 14 280° W
Mo, 25.06. 4:50 7 2 - 280° W
Mo, 25.06. 4:40 7 2 - 270° W
Mo, 25.06. 4:30 6 1 15 260° W
Mo, 25.06. 4:00 9 2 17 280° W
Mo, 25.06. 3:30 6 1 13 270° W
Mo, 25.06. 3:00 9 2 22 280° W
Mo, 25.06. 2:30 11 2 22 290° W
Ortszeit Untergrenze Bedeckung Gattung
total tief tief mittel hoch
Mo, 25.06. 2:00 2100 m 0/8 0/8 - - -
So, 24.06. 20:00 6600 m 8/8 8/8 - - -
So, 24.06. 14:00 600 m 7/8 7/8 - - -
So, 24.06. 8:00 300 m 8/8 8/8 - - -
So, 24.06. 2:00 510 m 7/8 7/8 - - -
Sa, 23.06. 20:00 360 m 8/8 8/8 - - -
Sa, 23.06. 14:00 1080 m 7/8 7/8 - - -
Sa, 23.06. 8:00 810 m 8/8 8/8 - - -
Ortszeit Bedeckungsgrad in Achtel und Wolkenuntergrenze
Mo, 25.06. 5:30 8(120m)
Mo, 25.06. 5:20 8(120m)
Mo, 25.06. 5:10 8(120m)
Mo, 25.06. 5:00 8(120m)
Mo, 25.06. 4:50 8(120m)
Mo, 25.06. 4:40 6(120m)
Mo, 25.06. 4:30 1(120m) 5(6300m)
Mo, 25.06. 4:00 keine Wolken
Mo, 25.06. 3:30 keine Wolken
Mo, 25.06. 3:00 1(1800m) 6(2100m)
Mo, 25.06. 2:30 6(2100m)
Ortszeit Luftdruck NN (hPa) Tendenz (hPa in 3 Std.)
Mo, 25.06. 2:00 1019 + 0,2
So, 24.06. 20:00 1018 - 0,2
So, 24.06. 14:00 1018 - 0,1
So, 24.06. 8:00 1018 0,0
So, 24.06. 2:00 1019 - 0,1
Sa, 23.06. 20:00 1019 - 0,3
Sa, 23.06. 14:00 1020 + 0,6
Sa, 23.06. 8:00 1018 + 0,5
Ortszeit Luftdruck NN (hPa) Tendenz (hPa in 3 Std.)
Mo, 25.06. 5:30 1019 0,0
Mo, 25.06. 5:20 1019 keine Meldung
Mo, 25.06. 5:10 1019 keine Meldung
Mo, 25.06. 5:00 1019 - 0,1
Mo, 25.06. 4:50 1019 keine Meldung
Mo, 25.06. 4:40 1019 keine Meldung
Mo, 25.06. 4:30 1019 0,0
Mo, 25.06. 4:00 1019 0,0
Mo, 25.06. 3:30 1019 0,0
Mo, 25.06. 3:00 1019 - 0,1
Mo, 25.06. 2:30 1019 0,0
Ortszeit Schneehöhe (cm)
Mo, 25.06. 2:00 0
So, 24.06. 20:00 0
So, 24.06. 14:00 0
So, 24.06. 8:00 0
So, 24.06. 2:00 0
Sa, 23.06. 20:00 0
Sa, 23.06. 14:00 0
Sa, 23.06. 8:00 0
Ortszeit Schneehöhe (cm)
Mo, 25.06. 5:30 0
Mo, 25.06. 5:20 0
Mo, 25.06. 5:10 0
Mo, 25.06. 5:00 0
Mo, 25.06. 4:50 0
Mo, 25.06. 4:40 0
Mo, 25.06. 4:30 0
Mo, 25.06. 4:00 0
Mo, 25.06. 3:30 0
Mo, 25.06. 3:00 0
Mo, 25.06. 2:30 0
Link zu dieser Seite / Seite empfehlen

Das Wetter in ...